Time;durP1;ratioP1;P1;durP2;ratioP2;P2;SDS_P1;SDS_P2;PMS_P1;PMS_P2;Temp;Humidity;BMP_temperature;BMP_pressure;BME280_temperature;BME280_humidity;BME280_pressure;Samples;Min_cycle;Max_cycle;Signal;HPM_P1;HPM_P2
2021/07/07 00:00:25;;;;;;;;;;;;;;;19.41;80.96;100275.86;1732365;83;20116;-67
2021/07/07 00:02:52;;;;;;;;;;;;;;;19.39;81.15;100287.05;1732349;83;20100;-67
2021/07/07 00:05:19;;;;;;;;;;;;;;;19.35;81.21;100281.20;1732734;83;20077;-67
2021/07/07 00:07:46;;;;;;;;;;;;;;;19.30;81.37;100288.69;1732371;83;21757;-67
2021/07/07 00:10:15;;;;;;;;;;;;;;;19.30;81.48;100279.45;1732303;83;20116;-67
2021/07/07 00:12:42;;;;;;;;;;;;;;;19.27;81.60;100283.19;1732345;83;20442;-67
2021/07/07 00:15:11;;;;;;;;;;;;;;;19.25;81.74;100283.81;1732257;83;20096;-67
2021/07/07 00:17:38;;;;;;;;;;;;;;;19.22;81.88;100285.40;1732378;83;20089;-68
2021/07/07 00:20:07;;;;;;;;;;;;;;;19.18;82.03;100283.19;1732548;83;21215;-67
2021/07/07 00:22:34;;;;;;;;;;;;;;;19.15;82.22;100285.61;1732198;83;20084;-67
2021/07/07 00:25:03;;;;;;;;;;;;;;;19.12;82.34;100284.56;1732517;83;20369;-67
2021/07/07 00:27:32;;;;;;;;;;;;;;;19.10;82.53;100292.27;1732307;83;20085;-67
2021/07/07 00:29:59;;;;;;;;;;;;;;;19.06;82.74;100291.70;1732265;83;20089;-67
2021/07/07 00:32:27;;;;;;;;;;;;;;;19.04;82.87;100290.99;1732343;83;21165;-68
2021/07/07 00:34:54;;;;;;;;;;;;;;;19.03;83.02;100295.08;1732319;83;20089;-68
2021/07/07 00:37:21;;;;;;;;;;;;;;;19.00;83.17;100297.50;1732593;83;20144;-67
2021/07/07 00:39:48;;;;;;;;;;;;;;;18.99;83.21;100298.47;1732222;83;20097;-67
2021/07/07 00:42:15;;;;;;;;;;;;;;;18.97;83.28;100295.13;1732613;83;20120;-68
2021/07/07 00:44:43;;;;;;;;;;;;;;;18.94;83.35;100295.39;1732197;83;21160;-67
2021/07/07 00:47:10;;;;;;;;;;;;;;;18.91;83.37;100288.58;1732380;83;20395;-68
2021/07/07 00:49:37;;;;;;;;;;;;;;;18.87;83.47;100293.77;1732333;83;20085;-67
2021/07/07 00:52:03;;;;;;;;;;;;;;;18.83;83.56;100291.52;1732585;83;20092;-67
2021/07/07 00:54:31;;;;;;;;;;;;;;;18.80;83.65;100288.66;1732326;83;20089;-68
2021/07/07 00:57:00;;;;;;;;;;;;;;;18.79;83.76;100291.46;1729325;83;21165;-68
2021/07/07 00:59:27;;;;;;;;;;;;;;;18.77;83.86;100290.27;1723998;83;20161;-68
2021/07/07 01:01:55;;;;;;;;;;;;;;;18.77;83.76;100288.95;1723773;82;20391;-66
2021/07/07 01:04:23;;;;;;;;;;;;;;;18.75;83.74;100294.01;1723631;82;20121;-66
2021/07/07 01:06:49;;;;;;;;;;;;;;;18.75;83.96;100291.37;1724334;82;20109;-66
2021/07/07 01:09:17;;;;;;;;;;;;;;;18.75;83.98;100295.33;1723812;83;21198;-67
2021/07/07 01:11:43;;;;;;;;;;;;;;;18.75;84.01;100292.69;1723950;82;20085;-66
2021/07/07 01:14:10;;;;;;;;;;;;;;;18.76;84.06;100299.64;1723762;83;20101;-66
2021/07/07 01:16:39;;;;;;;;;;;;;;;18.75;84.06;100305.40;1723770;82;20086;-67
2021/07/07 01:19:07;;;;;;;;;;;;;;;18.75;84.07;100305.40;1699966;83;20089;-66
2021/07/07 01:21:36;;;;;;;;;;;;;;;18.74;84.04;100303.73;1723762;82;20125;-67
2021/07/07 01:24:04;;;;;;;;;;;;;;;18.72;84.08;100301.70;1723681;83;20089;-66
2021/07/07 01:26:30;;;;;;;;;;;;;;;18.70;84.21;100302.80;1723952;82;20121;-66
2021/07/07 01:28:57;;;;;;;;;;;;;;;18.69;84.22;100303.77;1723612;83;20086;-67
2021/07/07 01:31:24;;;;;;;;;;;;;;;18.67;84.10;100311.81;1724036;82;20113;-67
2021/07/07 01:33:51;;;;;;;;;;;;;;;18.64;84.05;100302.84;1723735;83;21146;-67
2021/07/07 01:36:18;;;;;;;;;;;;;;;18.61;84.05;100314.48;1723672;83;20242;-65
2021/07/07 01:38:45;;;;;;;;;;;;;;;18.58;84.09;100318.66;1723676;83;20073;-65
2021/07/07 01:41:13;;;;;;;;;;;;;;;18.55;84.32;100317.61;1724090;82;20459;-65
2021/07/07 01:43:40;;;;;;;;;;;;;;;18.54;84.47;100317.73;1723775;83;20085;-65
2021/07/07 01:46:07;;;;;;;;;;;;;;;18.51;84.62;100318.83;1724370;82;21937;-66
2021/07/07 01:48:34;;;;;;;;;;;;;;;18.49;84.80;100318.12;1723652;82;20122;-65
2021/07/07 01:51:01;;;;;;;;;;;;;;;18.49;84.83;100323.88;1723930;82;20103;-66
2021/07/07 01:53:29;;;;;;;;;;;;;;;18.48;84.97;100329.63;1724012;83;20405;-66
2021/07/07 01:55:56;;;;;;;;;;;;;;;18.50;84.87;100330.34;1724116;83;20451;-67
2021/07/07 01:58:23;;;;;;;;;;;;;;;18.50;84.82;100324.23;1730542;83;21108;-66
2021/07/07 02:00:50;;;;;;;;;;;;;;;18.50;84.95;100323.75;1732157;83;20073;-66
2021/07/07 02:03:16;;;;;;;;;;;;;;;18.52;85.06;100328.89;1732291;83;20136;-66
2021/07/07 02:05:43;;;;;;;;;;;;;;;18.55;85.00;100329.95;1732147;83;20121;-66
2021/07/07 02:08:12;;;;;;;;;;;;;;;18.58;84.98;100331.02;1732445;83;20117;-66
2021/07/07 02:10:39;;;;;;;;;;;;;;;18.62;84.85;100335.09;1732367;83;21142;-66
2021/07/07 02:13:07;;;;;;;;;;;;;;;18.65;84.66;100334.84;1732133;83;20097;-66
2021/07/07 02:15:35;;;;;;;;;;;;;;;18.67;84.43;100328.12;1732192;83;20424;-66
2021/07/07 02:18:02;;;;;;;;;;;;;;;18.69;84.42;100332.78;1732503;83;20415;-66
2021/07/07 02:20:29;;;;;;;;;;;;;;;18.73;84.27;100335.52;1732468;83;20096;-66
2021/07/07 02:22:56;;;;;;;;;;;;;;;18.76;84.07;100335.25;1732706;83;21018;-66
2021/07/07 02:25:24;;;;;;;;;;;;;;;18.82;84.04;100336.86;1732341;83;20121;-68
2021/07/07 02:27:51;;;;;;;;;;;;;;;18.91;83.70;100340.52;1732586;83;20160;-66
2021/07/07 02:30:19;;;;;;;;;;;;;;;18.99;83.48;100336.73;1732264;83;20140;-66
2021/07/07 02:32:46;;;;;;;;;;;;;;;19.09;83.06;100340.74;1732732;83;20415;-66
2021/07/07 02:35:15;;;;;;;;;;;;;;;19.18;82.57;100338.14;1732342;83;21228;-66
2021/07/07 02:37:42;;;;;;;;;;;;;;;19.26;82.00;100342.73;1732272;83;20093;-66
2021/07/07 02:40:11;;;;;;;;;;;;;;;19.32;81.64;100339.55;1732452;83;20085;-66
2021/07/07 02:42:38;;;;;;;;;;;;;;;19.38;81.43;100342.98;1732519;83;20120;-66
2021/07/07 02:45:06;;;;;;;;;;;;;;;19.45;80.97;100348.56;1732430;83;20081;-66
2021/07/07 02:47:33;;;;;;;;;;;;;;;19.51;80.53;100346.74;1732490;83;21069;-66
2021/07/07 02:50:00;;;;;;;;;;;;;;;19.54;80.25;100345.16;1732265;83;20097;-66
2021/07/07 02:52:27;;;;;;;;;;;;;;;19.57;79.80;100350.16;1732440;83;20084;-66
2021/07/07 02:54:54;;;;;;;;;;;;;;;19.59;79.78;100352.19;1732380;83;20100;-66
2021/07/07 02:57:21;;;;;;;;;;;;;;;19.63;79.75;100356.20;1732545;83;20117;-66
2021/07/07 02:59:51;;;;;;;;;;;;;;;19.66;79.67;100355.93;1732317;83;21146;-66
2021/07/07 03:02:17;;;;;;;;;;;;;;;19.70;79.58;100358.65;1732554;83;20094;-66
2021/07/07 03:04:44;;;;;;;;;;;;;;;19.73;79.57;100358.38;1732310;83;20145;-66
2021/07/07 03:07:12;;;;;;;;;;;;;;;19.76;79.59;100353.31;1732426;83;20076;-66
2021/07/07 03:09:39;;;;;;;;;;;;;;;19.80;79.70;100363.95;1732476;83;20116;-66
2021/07/07 03:12:06;;;;;;;;;;;;;;;19.81;79.65;100361.17;1732612;83;21758;-66
2021/07/07 03:14:33;;;;;;;;;;;;;;;19.83;79.66;100359.72;1732233;83;20084;-66
2021/07/07 03:17:00;;;;;;;;;;;;;;;19.85;79.78;100362.58;1732377;83;20097;-66
2021/07/07 03:19:27;;;;;;;;;;;;;;;19.90;79.86;100368.29;1732290;83;20618;-66
2021/07/07 03:21:55;;;;;;;;;;;;;;;19.94;79.67;100367.05;1732316;83;20101;-66
2021/07/07 03:24:22;;;;;;;;;;;;;;;19.92;79.77;100370.31;1732272;83;21239;-66
2021/07/07 03:26:50;;;;;;;;;;;;;;;19.92;79.92;100375.59;1732266;83;20415;-66
2021/07/07 03:29:19;;;;;;;;;;;;;;;19.93;80.13;100381.23;1731830;83;20108;-66
2021/07/07 03:31:45;;;;;;;;;;;;;;;19.97;80.31;100386.59;1732464;83;20399;-65
2021/07/07 03:34:12;;;;;;;;;;;;;;;20.04;80.38;100384.69;1732374;83;20120;-66
2021/07/07 03:36:39;;;;;;;;;;;;;;;20.07;80.35;100390.55;1732400;83;21152;-66
2021/07/07 03:39:06;;;;;;;;;;;;;;;20.12;80.38;100388.32;1732139;83;20215;-66
2021/07/07 03:41:33;;;;;;;;;;;;;;;20.17;80.42;100393.20;1732433;83;20100;-66
2021/07/07 03:44:00;;;;;;;;;;;;;;;20.23;80.52;100393.97;1732238;83;20172;-66
2021/07/07 03:46:26;;;;;;;;;;;;;;;20.27;80.42;100401.97;1732269;83;20101;-66
2021/07/07 03:48:54;;;;;;;;;;;;;;;20.32;80.30;100402.39;1732326;83;21938;-66
2021/07/07 03:51:21;;;;;;;;;;;;;;;20.40;79.86;100411.80;1732183;83;20101;-66
2021/07/07 03:53:47;;;;;;;;;;;;;;;20.45;79.77;100401.63;1732619;83;20088;-66
2021/07/07 03:56:15;;;;;;;;;;;;;;;20.58;79.39;100394.25;1732333;83;20089;-66
2021/07/07 03:58:41;;;;;;;;;;;;;;;20.81;78.97;100403.17;1726650;83;20121;-66
2021/07/07 04:01:08;;;;;;;;;;;;;;;21.02;78.33;100401.19;1723711;82;21124;-66
2021/07/07 04:03:36;;;;;;;;;;;;;;;21.21;77.52;100401.12;1723905;82;20110;-66
2021/07/07 04:06:03;;;;;;;;;;;;;;;21.37;75.98;100404.49;1723626;82;20089;-67
2021/07/07 04:08:30;;;;;;;;;;;;;;;21.42;75.86;100400.08;1724142;82;20113;-66
2021/07/07 04:10:57;;;;;;;;;;;;;;;21.47;75.57;100397.34;1723744;83;20101;-66
2021/07/07 04:13:27;;;;;;;;;;;;;;;21.60;75.51;100403.11;1723986;82;21727;-67
2021/07/07 04:15:52;;;;;;;;;;;;;;;21.90;74.75;100415.22;1723384;83;20129;-66
2021/07/07 04:18:20;;;;;;;;;;;;;;;22.46;73.73;100410.62;1723777;82;20097;-67
2021/07/07 04:20:51;;;;;;;;;;;;;;;22.93;71.85;100414.66;1723633;83;20459;-67
2021/07/07 04:23:20;;;;;;;;;;;;;;;23.31;69.76;100401.91;1723803;83;20100;-68
2021/07/07 04:25:47;;;;;;;;;;;;;;;23.81;67.57;100405.94;1723904;82;21110;-67
2021/07/07 04:28:14;;;;;;;;;;;;;;;24.37;65.21;100408.89;1723721;82;20121;-67
2021/07/07 04:30:40;;;;;;;;;;;;;;;24.87;63.70;100402.83;1723997;82;20085;-67
2021/07/07 04:33:07;;;;;;;;;;;;;;;25.43;62.21;100407.70;1723594;82;20117;-66
2021/07/07 04:35:34;;;;;;;;;;;;;;;26.01;60.33;100410.91;1724039;82;20468;-66
2021/07/07 04:38:01;;;;;;;;;;;;;;;26.49;58.49;100416.42;1723713;83;21164;-67
2021/07/07 04:40:27;;;;;;;;;;;;;;;26.98;56.94;100410.66;1723914;82;20077;-66
2021/07/07 04:42:55;;;;;;;;;;;;;;;27.50;56.07;100414.06;1723686;82;20113;-65
2021/07/07 04:45:21;;;;;;;;;;;;;;;28.07;54.02;100418.64;1723770;82;20156;-66
2021/07/07 04:47:48;;;;;;;;;;;;;;;28.34;52.73;100423.80;1723654;82;20191;-67
2021/07/07 04:50:16;;;;;;;;;;;;;;;28.47;52.74;100423.06;1723713;83;21046;-68
2021/07/07 04:52:43;;;;;;;;;;;;;;;28.69;51.15;100427.90;1723574;83;20085;-67
2021/07/07 04:55:12;;;;;;;;;;;;;;;28.84;50.83;100420.60;1723560;82;20124;-67
2021/07/07 04:57:42;;;;;;;;;;;;;;;29.05;49.95;100426.43;1723155;82;20132;-67
2021/07/07 05:00:20;;;;;;;7.92;6.40;;;;;;;29.14;48.80;100427.42;1700715;83;35438;-66
2021/07/07 05:02:47;;;;;;;7.90;6.10;;;;;;;29.20;49.17;100431.14;1704650;83;21462;-69
2021/07/07 05:05:17;;;;;;;16.70;6.85;;;;;;;29.43;48.75;100428.22;1717775;81;21002;-68
2021/07/07 05:07:44;;;;;;;8.63;6.45;;;;;;;29.73;48.44;100430.09;1718352;81;21489;-73
2021/07/07 05:10:14;;;;;;;7.75;6.53;;;;;;;29.98;47.42;100438.45;1712294;81;21005;-71
2021/07/07 05:12:51;;;;;;;7.37;6.12;;;;;;;30.12;46.96;100440.14;1720058;81;21003;-69
2021/07/07 05:15:20;;;;;;;6.90;6.30;;;;;;;30.30;46.42;100447.11;1743436;81;20970;-69
2021/07/07 05:17:47;;;;;;;6.55;5.97;;;;;;;30.40;46.03;100442.14;1721894;81;20944;-71
2021/07/07 05:20:16;;;;;;;6.25;5.67;;;;;;;30.45;45.72;100441.02;1745173;80;21491;-70
2021/07/07 05:22:46;;;;;;;7.15;5.97;;;;;;;30.51;45.58;100445.57;1717499;82;21580;-70
2021/07/07 05:25:17;;;;;;;8.30;5.95;;;;;;;30.65;44.82;100445.61;1777154;78;20994;-70
2021/07/07 05:27:44;;;;;;;9.25;6.15;;;;;;;30.77;44.84;100448.00;1785044;78;21087;-68
2021/07/07 05:30:13;;;;;;;11.25;5.40;;;;;;;30.97;44.86;100452.00;1784891;78;21098;-75
2021/07/07 05:32:40;;;;;;;14.28;7.03;;;;;;;31.22;44.48;100442.24;1774388;78;20860;-78
2021/07/07 05:35:09;;;;;;;6.03;5.37;;;;;;;31.56;44.03;100449.72;1781012;79;21549;-83
2021/07/07 05:37:38;;;;;;;6.22;5.70;;;;;;;31.86;42.75;100443.30;1778608;79;21539;-77
2021/07/07 05:40:23;;;;;;;7.75;5.90;;;;;;;31.97;42.42;100445.31;1770237;78;20970;-78
2021/07/07 05:43:19;;;;;;;9.03;5.85;;;;;;;32.03;42.80;100444.42;1770835;78;20872;-72
2021/07/07 05:46:00;;;;;;;6.05;5.50;;;;;;;32.01;42.45;100451.38;1785579;78;21029;-72
2021/07/07 05:48:27;;;;;;;7.37;5.92;;;;;;;31.97;42.50;100450.70;1783597;78;21603;-72
2021/07/07 05:51:01;;;;;;;8.08;5.58;;;;;;;31.94;42.79;100456.52;1786585;78;20938;-72
2021/07/07 05:53:31;;;;;;;9.83;5.05;;;;;;;32.00;41.86;100450.23;1790602;79;20864;-73
2021/07/07 05:55:58;;;;;;;8.70;5.20;;;;;;;32.05;41.44;100455.81;1782070;78;20987;-71
2021/07/07 05:58:26;;;;;;;5.78;5.20;;;;;;;31.97;42.17;100448.83;1779265;78;20947;-71
2021/07/07 06:00:53;;;;;;;6.40;5.05;;;;;;;32.03;41.97;100453.33;1743026;80;20965;-71
2021/07/07 06:03:20;;;;;;;6.03;4.65;;;;;;;32.09;41.22;100463.77;1750773;81;20927;-72
2021/07/07 06:05:47;;;;;;;7.58;4.90;;;;;;;32.04;40.65;100459.02;1750660;80;21136;-72
2021/07/07 06:08:14;;;;;;;7.35;4.78;;;;;;;31.98;40.57;100464.47;1747274;80;20986;-71
2021/07/07 06:10:43;;;;;;;7.50;4.80;;;;;;;31.91;41.05;100463.68;1758342;80;20927;-69
2021/07/07 06:13:10;;;;;;;5.15;4.65;;;;;;;31.96;40.78;100470.59;1756127;80;20995;-70
2021/07/07 06:15:37;;;;;;;5.83;4.83;;;;;;;31.98;40.70;100468.52;1743347;81;20947;-71
2021/07/07 06:18:06;;;;;;;6.08;4.60;;;;;;;31.94;40.78;100470.81;1754123;80;21579;-72
2021/07/07 06:20:33;;;;;;;4.97;4.62;;;;;;;32.04;40.19;100471.67;1764644;80;21046;-72
2021/07/07 06:23:01;;;;;;;5.35;4.12;;;;;;;32.19;39.85;100472.73;1742252;80;20931;-71
2021/07/07 06:25:45;;;;;;;6.47;3.72;;;;;;;32.27;38.04;100473.34;1752855;80;20911;-69
2021/07/07 06:28:14;;;;;;;3.87;3.47;;;;;;;32.23;37.26;100480.20;1748861;80;21088;-75
2021/07/07 06:30:42;;;;;;;5.90;3.85;;;;;;;32.12;37.10;100483.55;1757347;80;21303;-73
2021/07/07 06:33:11;;;;;;;4.20;3.80;;;;;;;32.06;36.98;100483.05;1758150;80;20951;-71
2021/07/07 06:35:38;;;;;;;5.90;3.67;;;;;;;31.98;36.56;100481.98;1765007;80;20939;-69
2021/07/07 06:38:08;;;;;;;5.10;3.55;;;;;;;31.86;36.76;100486.39;1755965;80;20892;-72
2021/07/07 06:40:35;;;;;;;6.05;3.90;;;;;;;31.80;37.48;100492.93;1756041;80;20958;-72
2021/07/07 06:43:02;;;;;;;4.05;3.27;;;;;;;31.86;37.15;100487.73;1760470;80;21046;-72
2021/07/07 06:45:30;;;;;;;4.00;3.70;;;;;;;31.90;36.38;100493.00;1743494;80;21032;-79
2021/07/07 06:47:59;;;;;;;3.55;3.08;;;;;;;31.73;35.96;100489.95;1748350;80;20927;-72
2021/07/07 06:50:27;;;;;;;5.30;2.90;;;;;;;31.64;36.48;100489.84;1767150;80;21039;-65
2021/07/07 06:52:54;;;;;;;10.53;4.15;;;;;;;31.61;35.74;100494.30;1748520;80;21588;-73
2021/07/07 06:55:21;;;;;;;5.47;3.25;;;;;;;31.58;36.54;100495.58;1748175;80;21547;-81
2021/07/07 06:57:49;;;;;;;5.28;3.75;;;;;;;31.59;36.26;100495.06;1755006;81;20974;-74
2021/07/07 07:00:17;;;;;;;8.30;3.27;;;;;;;31.52;36.10;100492.39;1749730;80;21072;-76
2021/07/07 07:02:44;;;;;;;9.00;3.47;;;;;;;31.38;36.12;100504.22;1745572;81;21012;-75
2021/07/07 07:05:12;;;;;;;8.98;3.42;;;;;;;31.29;36.55;100498.22;1746904;80;20922;-79
2021/07/07 07:07:40;;;;;;;5.17;3.60;;;;;;;31.34;37.28;100502.45;1748198;80;21182;-72
2021/07/07 07:10:10;;;;;;;3.98;3.58;;;;;;;31.59;37.34;100503.14;1758576;80;21477;-78
2021/07/07 07:12:38;;;;;;;4.62;3.65;;;;;;;31.83;36.67;100505.14;1750573;80;20998;-73
2021/07/07 07:15:11;;;;;;;3.95;3.20;;;;;;;31.99;36.16;100499.25;1748564;80;20923;-74
2021/07/07 07:17:38;;;;;;;5.58;2.62;;;;;;;32.01;35.22;100501.20;1745527;80;21443;-75
2021/07/07 07:20:09;;;;;;;4.00;3.20;;;;;;;31.99;34.29;100502.50;1760267;80;21953;-75
2021/07/07 07:22:39;;;;;;;5.35;2.70;;;;;;;31.87;33.82;100505.03;1754982;80;21529;-77
2021/07/07 07:25:11;;;;;;;4.95;2.33;;;;;;;31.75;32.94;100510.24;1743691;80;20899;-68
2021/07/07 07:27:38;;;;;;;2.83;2.50;;;;;;;31.66;33.31;100508.78;1752821;80;20936;-68
2021/07/07 07:30:09;;;;;;;3.92;2.33;;;;;;;31.54;33.08;100509.67;1746842;80;20915;-73
2021/07/07 07:32:36;;;;;;;4.05;2.42;;;;;;;31.48;34.12;100516.20;1756821;80;21097;-77
2021/07/07 07:35:04;;;;;;;6.37;2.60;;;;;;;31.54;33.40;100513.20;1751244;81;20963;-72
2021/07/07 07:37:48;;;;;;;5.03;2.40;;;;;;;31.63;33.15;100507.03;1753714;80;21210;-69
2021/07/07 07:40:10;;;;;;;3.10;2.90;;;;;;;31.64;32.00;100512.20;1756666;80;21035;-71
2021/07/07 07:42:42;;;;;;;9.98;2.55;;;;;;;31.49;33.13;100514.34;1760465;80;20884;-74
2021/07/07 07:45:12;;;;;;;2.05;1.95;;;;;;;31.46;33.08;100522.31;1756913;80;21970;-73
2021/07/07 07:47:41;;;;;;;3.98;2.45;;;;;;;31.46;31.50;100514.24;1761799;80;20869;-72
2021/07/07 07:50:14;;;;;;;4.33;2.17;;;;;;;31.28;31.27;100511.37;1754215;80;20855;-75
2021/07/07 07:52:42;;;;;;;9.83;2.40;;;;;;;31.18;30.88;100512.86;1768238;80;20932;-79
2021/07/07 07:55:09;;;;;;;5.85;2.35;;;;;;;31.17;29.78;100516.06;1759710;80;20860;-77
2021/07/07 07:57:38;;;;;;;5.60;2.55;;;;;;;31.16;30.52;100517.09;1760510;80;21648;-74
2021/07/07 08:00:09;;;;;;;2.87;1.98;;;;;;;31.18;31.21;100514.20;1758045;80;20977;-70
2021/07/07 08:02:38;;;;;;;4.90;2.10;;;;;;;31.21;31.54;100515.93;1763202;80;20971;-72
2021/07/07 08:05:06;;;;;;;5.97;2.30;;;;;;;31.27;31.77;100525.86;1763399;80;20898;-71
2021/07/07 08:07:34;;;;;;;5.78;2.30;;;;;;;31.29;31.21;100527.00;1765590;80;20971;-72
2021/07/07 08:10:01;;;;;;;7.85;2.15;;;;;;;31.24;31.56;100519.55;1766628;80;21107;-75
2021/07/07 08:12:28;;;;;;;2.17;2.00;;;;;;;31.34;31.45;100517.27;1765163;81;20942;-73
2021/07/07 08:14:55;;;;;;;3.62;2.17;;;;;;;31.56;30.81;100522.41;1761200;80;20951;-75
2021/07/07 08:17:23;;;;;;;3.15;2.10;;;;;;;31.60;29.86;100531.17;1769616;80;21005;-68
2021/07/07 08:19:50;;;;;;;3.12;2.30;;;;;;;31.43;29.97;100534.02;1763332;80;20931;-68
2021/07/07 08:22:22;;;;;;;;;;;;;;;31.20;30.77;100520.17;1762469;80;21120;-68
2021/07/07 08:24:52;;;;;;;;;;;;;;;31.01;30.68;100519.97;1768389;80;20104;-72
2021/07/07 08:27:31;;;;;;;;;;;;;;;30.83;31.48;100530.50;1768354;80;20182;-70
2021/07/07 08:30:05;;;;;;;;;;;;;;;30.80;30.81;100532.25;1768833;80;20081;-76
2021/07/07 08:32:53;;;;;;;;;;;;;;;30.82;30.17;100544.98;1762799;80;20124;-74
2021/07/07 08:35:46;;;;;;;;;;;;;;;30.71;30.38;100529.48;1768500;80;21137;-70
2021/07/07 08:38:46;;;;;;;;;;;;;;;30.47;29.91;100530.33;1750371;81;20167;-68
2021/07/07 08:41:33;;;;;;;;;;;;;;;30.21;31.19;100527.58;1771098;80;20306;-72
2021/07/07 08:44:15;;;;;;;;;;;;;;;30.02;31.64;100526.47;1764421;80;20454;-75
2021/07/07 08:46:56;;;;;;;;;;;;;;;29.93;31.43;100541.61;1722235;82;20083;-66
2021/07/07 08:49:28;;;;;;;;;;;;;;;29.73;32.22;100530.23;1769909;80;21108;-68
2021/07/07 08:52:06;;;;;;;;;;;;;;;29.79;32.79;100534.82;1772389;81;20080;-67
2021/07/07 08:57:46;;;;;;;;;;;;;;;29.85;33.15;100538.05;1762927;81;20144;-68
2021/07/07 09:00:35;;;;;;;;;;;;;;;29.82;32.69;100534.42;1758757;81;20554;-69
2021/07/07 09:03:05;;;;;;;;;;;;;;;29.71;33.24;100556.97;1702874;83;21105;-66
2021/07/07 09:05:51;;;;;;;;;;;;;;;29.52;33.22;100548.62;1719105;82;20172;-70
2021/07/07 09:08:29;;;;;;;;;;;;;;;29.40;33.29;100545.29;1725438;81;20124;-81
2021/07/07 09:10:57;;;;;;;;;;;;;;;29.38;32.64;100554.88;1700687;81;20196;-77
2021/07/07 09:13:24;;;;;;;;;;;;;;;29.23;31.91;100554.65;1743525;81;20349;-75
2021/07/07 09:15:51;;;;;;;;;;;;;;;29.06;32.83;100546.91;1738091;81;21115;-74
2021/07/07 09:18:20;;;;;;;;;;;;;;;28.96;32.81;100554.44;1740703;81;20096;-76
2021/07/07 09:20:48;;;;;;;;;;;;;;;28.77;32.21;100546.52;1706030;82;20734;-78
2021/07/07 09:23:17;;;;;;;;;;;;;;;28.60;33.81;100544.28;1740081;81;20647;-72
2021/07/07 09:25:59;;;;;;;;;;;;;;;28.57;34.45;100547.33;1742871;81;20140;-74
2021/07/07 09:28:28;;;;;;;;;;;;;;;28.53;33.15;100551.73;1752106;81;21107;-81
2021/07/07 09:30:56;;;;;;;;;;;;;;;28.42;32.79;100557.58;1761383;81;20129;-73
2021/07/07 09:33:25;;;;;;;;;;;;;;;28.30;32.56;100560.45;1756433;81;20139;-77
2021/07/07 09:35:52;;;;;;;;;;;;;;;28.18;32.83;100552.03;1742980;81;20135;-71
2021/07/07 09:38:18;;;;;;;;;;;;;;;28.10;33.74;100556.66;1765567;81;20473;-75
2021/07/07 09:40:45;;;;;;;;;;;;;;;28.04;33.71;100561.42;1758694;81;21124;-77
2021/07/07 09:43:14;;;;;;;;;;;;;;;27.99;34.02;100549.13;1752747;81;20136;-75
2021/07/07 09:45:45;;;;;;;;;;;;;;;27.95;34.05;100558.04;1756779;81;20115;-71
2021/07/07 09:48:14;;;;;;;;;;;;;;;27.91;34.94;100565.28;1751330;81;20114;-74
2021/07/07 09:50:42;;;;;;;;;;;;;;;27.89;32.83;100567.64;1755118;81;20420;-76
2021/07/07 09:53:13;;;;;;;;;;;;;;;27.86;32.68;100564.50;1761770;81;21063;-71
2021/07/07 09:55:40;;;;;;;;;;;;;;;27.85;33.35;100566.85;1759099;81;20152;-74
2021/07/07 09:58:08;;;;;;;;;;;;;;;27.88;33.34;100563.80;1758846;81;20089;-73
2021/07/07 10:00:38;;;;;;;;;;;;;;;27.89;33.20;100572.16;1750980;80;20605;-67
2021/07/07 10:03:06;;;;;;;;;;;;;;;27.87;33.12;100568.33;1748158;81;20148;-66
2021/07/07 10:05:38;;;;;;;;;;;;;;;27.82;33.85;100568.56;1756133;81;21191;-69
2021/07/07 10:08:06;;;;;;;;;;;;;;;27.78;33.93;100581.98;1727430;82;20107;-68
2021/07/07 10:10:33;;;;;;;;;;;;;;;27.71;33.66;100565.83;1727474;83;20174;-68
2021/07/07 10:13:01;;;;;;;;;;;;;;;27.67;34.27;100569.88;1727517;82;20103;-68
2021/07/07 10:15:27;;;;;;;;;;;;;;;27.66;34.18;100576.25;1727505;83;20451;-66
2021/07/07 10:17:54;;;;;;;;;;;;;;;27.67;34.05;100578.42;1728152;83;21885;-66
2021/07/07 10:20:21;;;;;;;;;;;;;;;27.68;34.04;100576.06;1728155;83;20120;-69
2021/07/07 10:22:47;;;;;;;;;;;;;;;27.68;34.72;100571.55;1728413;83;20111;-67
2021/07/07 10:25:23;;;;;;;;;;;;;;;27.71;35.10;100578.38;1728069;83;20158;-70
2021/07/07 10:27:50;;;;;;;;;;;;;;;27.73;34.37;100576.34;1709669;83;20186;-67
2021/07/07 10:30:20;;;;;;;;;;;;;;;27.74;33.21;100582.02;1728199;83;21116;-68
2021/07/07 10:33:09;;;;;;;;;;;;;;;27.74;34.35;100575.34;1758429;81;20533;-69
2021/07/07 10:35:36;;;;;;;;;;;;;;;27.76;34.56;100584.02;1728208;83;20084;-69
2021/07/07 10:38:05;;;;;;;;;;;;;;;27.78;34.12;100587.34;1728304;82;20120;-65
2021/07/07 10:40:34;;;;;;;;;;;;;;;27.79;34.22;100586.32;1728622;81;20088;-65
2021/07/07 10:43:01;;;;;;;;;;;;;;;27.81;33.67;100591.81;1758522;81;21101;-67
2021/07/07 10:45:36;;;;;;;;;;;;;;;27.78;35.05;100592.69;1758179;81;20750;-65
2021/07/07 10:48:25;;;;;;;;;;;;;;;27.74;35.15;100602.09;1749076;81;20132;-66
2021/07/07 10:50:53;;;;;;;;;;;;;;;27.70;35.18;100586.08;1744350;82;20097;-69
2021/07/07 10:53:34;;;;;;;;;;;;;;;27.69;34.68;100587.09;1744637;82;20136;-72
2021/07/07 10:56:04;;;;;;;;;;;;;;;27.68;33.75;100591.61;1744181;80;21964;-66
2021/07/07 10:58:38;;;;;;;;;;;;;;;27.60;34.52;100585.00;1754426;81;20631;-66
2021/07/07 11:01:24;;;;;;;;;;;;;;;27.59;34.26;100587.89;1734159;80;20124;-69
2021/07/07 11:04:01;;;;;;;;;;;;;;;27.56;35.33;100585.05;1701742;82;20468;-69
2021/07/07 11:06:29;;;;;;;;;;;;;;;27.55;36.44;100586.89;1742064;81;20121;-71
2021/07/07 11:09:15;;;;;;;;;;;;;;;27.59;35.96;100586.55;1741688;81;20264;-69
2021/07/07 11:11:45;;;;;;;;;;;;;;;27.65;36.07;100588.47;1741383;81;20143;-71
2021/07/07 11:14:19;;;;;;;;;;;;;;;27.68;35.98;100586.27;1757745;81;20458;-69
2021/07/07 11:16:56;;;;;;;;;;;;;;;27.70;35.33;100598.12;1752357;81;20167;-72
2021/07/07 11:19:41;;;;;;;;;;;;;;;27.68;35.19;100593.45;1746143;81;20087;-69
2021/07/07 11:22:10;;;;;;;;;;;;;;;27.67;35.82;100589.13;1752379;81;21081;-68
2021/07/07 11:24:37;;;;;;;;;;;;;;;27.67;34.95;100590.45;1749525;81;20632;-68
2021/07/07 11:27:09;;;;;;;;;;;;;;;27.66;35.38;100588.80;1753028;81;20473;-68
2021/07/07 11:29:37;;;;;;;;;;;;;;;27.68;35.19;100586.27;1753046;81;20873;-72
2021/07/07 11:32:23;;;;;;;;;;;;;;;27.70;35.50;100591.43;1747932;81;20190;-70
2021/07/07 11:34:53;;;;;;;;;;;;;;;27.71;35.55;100594.44;1736766;82;21554;-76
2021/07/07 11:37:21;;;;;;;;;;;;;;;27.71;36.03;100589.08;1738277;82;20416;-71
2021/07/07 11:40:08;;;;;;;;;;;;;;;27.72;36.01;100589.41;1740230;82;20429;-73
2021/07/07 11:42:37;;;;;;;;;;;;;;;27.73;36.02;100592.41;1744471;81;20113;-66
2021/07/07 11:45:05;;;;;;;;;;;;;;;27.76;35.87;100586.18;1735480;81;20076;-72
2021/07/07 11:47:35;;;;;;;;;;;;;;;27.79;35.24;100588.49;1753545;82;21772;-73
2021/07/07 11:50:11;;;;;;;;;;;;;;;27.81;36.03;100581.11;1739581;81;20118;-71
2021/07/07 11:53:02;;;;;;;;;;;;;;;27.86;36.35;100593.94;1730106;81;20131;-73
2021/07/07 11:55:56;;;;;;;;;;;;;;;27.92;35.90;100599.06;1733493;81;20226;-74
2021/07/07 11:58:39;;;;;;;;;;;;;;;27.94;35.73;100591.69;1746431;81;20109;-76
2021/07/07 12:01:10;;;;;;;;;;;;;;;27.94;35.66;100590.34;1746451;81;20479;-71
2021/07/07 12:03:41;;;;;;;;;;;;;;;27.95;36.25;100592.84;1700346;82;20081;-76
2021/07/07 12:06:12;;;;;;;;;;;;;;;27.98;35.82;100603.69;1725600;81;20206;-72
2021/07/07 12:08:42;;;;;;;;;;;;;;;27.99;35.50;100598.66;1741043;81;20157;-72
2021/07/07 12:11:17;;;;;;;;;;;;;;;27.98;35.06;100592.98;1748555;81;20073;-71
2021/07/07 12:13:47;;;;;;;;;;;;;;;27.94;35.42;100595.70;1739777;81;20410;-74
2021/07/07 12:16:22;;;;;;;;;;;;;;;27.95;36.29;100600.87;1737511;81;20137;-71
2021/07/07 12:18:58;;;;;;;;;;;;;;;27.94;35.71;100596.53;1751888;81;20088;-71
2021/07/07 12:21:28;;;;;;;;;;;;;;;27.95;36.02;100598.19;1748758;81;20209;-72
2021/07/07 12:23:57;;;;;;;;;;;;;;;27.95;35.45;100605.39;1749293;81;20155;-72
2021/07/07 12:26:28;;;;;;;;;;;;;;;27.94;35.14;100593.02;1756886;81;21454;-73
2021/07/07 12:28:58;;;;;;;;;;;;;;;27.94;35.52;100595.70;1711746;82;20107;-70
2021/07/07 12:31:26;;;;;;;;;;;;;;;27.95;36.12;100586.66;1722604;82;20202;-69